sensor_id;sensor_type;location;lat;lon;timestamp;pressure;altitude;pressure_sealevel;temperature;humidity
14295;BME280;7231;59.370;18.016;2024-03-22T00:02:14;100879.53;;;3.51;100.00
14295;BME280;7231;59.370;18.016;2024-03-22T00:04:41;100871.66;;;3.49;100.00
14295;BME280;7231;59.370;18.016;2024-03-22T00:07:07;100863.91;;;3.49;100.00
14295;BME280;7231;59.370;18.016;2024-03-22T00:09:34;100758.91;;;2.96;100.00
14295;BME280;7231;59.370;18.016;2024-03-22T00:12:00;100853.59;;;3.51;100.00
14295;BME280;7231;59.370;18.016;2024-03-22T00:14:27;100849.31;;;3.51;100.00
14295;BME280;7231;59.370;18.016;2024-03-22T00:16:53;100835.38;;;3.49;100.00
14295;BME280;7231;59.370;18.016;2024-03-22T00:19:22;100838.06;;;3.51;100.00
14295;BME280;7231;59.370;18.016;2024-03-22T00:21:48;100850.38;;;3.55;100.00
14295;BME280;7231;59.370;18.016;2024-03-22T00:24:15;100835.38;;;3.49;100.00
14295;BME280;7231;59.370;18.016;2024-03-22T00:26:41;100826.97;;;3.53;100.00
14295;BME280;7231;59.370;18.016;2024-03-22T00:29:08;100816.59;;;3.53;100.00
14295;BME280;7231;59.370;18.016;2024-03-22T00:31:35;100819.19;;;3.53;100.00
14295;BME280;7231;59.370;18.016;2024-03-22T00:34:02;100794.19;;;3.39;100.00
14295;BME280;7231;59.370;18.016;2024-03-22T00:36:29;100795.53;;;3.47;100.00
14295;BME280;7231;59.370;18.016;2024-03-22T00:38:56;100805.16;;;3.50;100.00
14295;BME280;7231;59.370;18.016;2024-03-22T00:41:22;100800.16;;;3.53;100.00
14295;BME280;7231;59.370;18.016;2024-03-22T00:43:50;100792.28;;;3.51;100.00
14295;BME280;7231;59.370;18.016;2024-03-22T00:46:16;100802.66;;;3.51;100.00
14295;BME280;7231;59.370;18.016;2024-03-22T00:48:43;100784.91;;;3.43;100.00
14295;BME280;7231;59.370;18.016;2024-03-22T00:51:09;100777.84;;;3.40;100.00
14295;BME280;7231;59.370;18.016;2024-03-22T00:53:38;100778.34;;;3.49;100.00
14295;BME280;7231;59.370;18.016;2024-03-22T00:56:04;100790.69;;;3.53;100.00
14295;BME280;7231;59.370;18.016;2024-03-22T00:58:31;100691.75;;;2.99;100.00
14295;BME280;7231;59.370;18.016;2024-03-22T01:00:58;100776.81;;;3.53;100.00
14295;BME280;7231;59.370;18.016;2024-03-22T01:03:25;100767.97;;;3.49;100.00
14295;BME280;7231;59.370;18.016;2024-03-22T01:05:51;100754.78;;;3.45;100.00
14295;BME280;7231;59.370;18.016;2024-03-22T01:08:18;100742.53;;;3.42;100.00
14295;BME280;7231;59.370;18.016;2024-03-22T01:10:45;100741.72;;;3.43;100.00
14295;BME280;7231;59.370;18.016;2024-03-22T01:13:12;100725.69;;;3.34;100.00
14295;BME280;7231;59.370;18.016;2024-03-22T01:15:39;100723.97;;;3.35;100.00
14295;BME280;7231;59.370;18.016;2024-03-22T01:18:06;100727.28;;;3.32;100.00
14295;BME280;7231;59.370;18.016;2024-03-22T01:20:32;100726.47;;;3.33;100.00
14295;BME280;7231;59.370;18.016;2024-03-22T01:22:59;100728.09;;;3.31;100.00
14295;BME280;7231;59.370;18.016;2024-03-22T01:25:26;100722.03;;;3.31;100.00
14295;BME280;7231;59.370;18.016;2024-03-22T01:27:56;100698.19;;;3.21;100.00
14295;BME280;7231;59.370;18.016;2024-03-22T01:30:22;100711.66;;;3.31;100.00
14295;BME280;7231;59.370;18.016;2024-03-22T01:32:54;100701.84;;;3.25;100.00
14295;BME280;7231;59.370;18.016;2024-03-22T01:35:20;100681.97;;;3.09;100.00
14295;BME280;7231;59.370;18.016;2024-03-22T01:37:47;100688.56;;;3.19;100.00
14295;BME280;7231;59.370;18.016;2024-03-22T01:40:13;100689.38;;;3.18;100.00
14295;BME280;7231;59.370;18.016;2024-03-22T01:42:40;100674.63;;;3.17;100.00
14295;BME280;7231;59.370;18.016;2024-03-22T01:45:08;100571.59;;;2.64;100.00
14295;BME280;7231;59.370;18.016;2024-03-22T01:47:36;100666.78;;;3.15;100.00
14295;BME280;7231;59.370;18.016;2024-03-22T01:50:02;100651.16;;;3.14;100.00
14295;BME280;7231;59.370;18.016;2024-03-22T01:52:29;100646.78;;;3.13;100.00
14295;BME280;7231;59.370;18.016;2024-03-22T01:54:55;100638.19;;;3.14;100.00
14295;BME280;7231;59.370;18.016;2024-03-22T01:57:23;100631.47;;;3.17;100.00
14295;BME280;7231;59.370;18.016;2024-03-22T01:59:49;100618.28;;;3.13;100.00
14295;BME280;7231;59.370;18.016;2024-03-22T02:02:19;100598.84;;;3.05;100.00
14295;BME280;7231;59.370;18.016;2024-03-22T02:04:45;100605.00;;;3.07;100.00
14295;BME280;7231;59.370;18.016;2024-03-22T02:07:12;100614.72;;;3.11;100.00
14295;BME280;7231;59.370;18.016;2024-03-22T02:09:38;100605.09;;;3.08;100.00
14295;BME280;7231;59.370;18.016;2024-03-22T02:12:06;100611.88;;;3.06;100.00
14295;BME280;7231;59.370;18.016;2024-03-22T02:14:32;100603.13;;;3.04;100.00
14295;BME280;7231;59.370;18.016;2024-03-22T02:16:59;100561.69;;;2.88;100.00
14295;BME280;7231;59.370;18.016;2024-03-22T02:19:27;100589.44;;;3.07;100.00
14295;BME280;7231;59.370;18.016;2024-03-22T02:21:54;100588.66;;;3.08;100.00
14295;BME280;7231;59.370;18.016;2024-03-22T02:24:21;100580.78;;;3.06;100.00
14295;BME280;7231;59.370;18.016;2024-03-22T02:26:48;100569.28;;;3.01;100.00
14295;BME280;7231;59.370;18.016;2024-03-22T02:29:14;100556.81;;;2.94;100.00
14295;BME280;7231;59.370;18.016;2024-03-22T02:31:42;100556.91;;;2.96;100.00
14295;BME280;7231;59.370;18.016;2024-03-22T02:34:08;100563.22;;;3.01;100.00
14295;BME280;7231;59.370;18.016;2024-03-22T02:36:35;100549.94;;;2.94;100.00
14295;BME280;7231;59.370;18.016;2024-03-22T02:39:01;100546.56;;;2.96;100.00
14295;BME280;7231;59.370;18.016;2024-03-22T02:41:30;100555.53;;;3.02;100.00
14295;BME280;7231;59.370;18.016;2024-03-22T02:43:56;100545.25;;;3.04;100.00
14295;BME280;7231;59.370;18.016;2024-03-22T02:46:23;100549.47;;;3.02;100.00
14295;BME280;7231;59.370;18.016;2024-03-22T02:48:49;100531.09;;;2.97;100.00
14295;BME280;7231;59.370;18.016;2024-03-22T02:51:16;100526.97;;;3.01;100.00
14295;BME280;7231;59.370;18.016;2024-03-22T02:53:42;100522.50;;;2.98;100.00
14295;BME280;7231;59.370;18.016;2024-03-22T02:56:09;100520.91;;;3.00;100.00
14295;BME280;7231;59.370;18.016;2024-03-22T02:58:37;100531.34;;;3.02;100.00
14295;BME280;7231;59.370;18.016;2024-03-22T03:01:04;100509.72;;;3.01;100.00
14295;BME280;7231;59.370;18.016;2024-03-22T03:03:31;100500.34;;;3.03;100.00
14295;BME280;7231;59.370;18.016;2024-03-22T03:05:58;100490.72;;;3.01;100.00
14295;BME280;7231;59.370;18.016;2024-03-22T03:08:24;100482.28;;;3.05;100.00
14295;BME280;7231;59.370;18.016;2024-03-22T03:10:51;100478.09;;;3.07;100.00
14295;BME280;7231;59.370;18.016;2024-03-22T03:13:18;100468.38;;;3.03;100.00
14295;BME280;7231;59.370;18.016;2024-03-22T03:15:46;100469.41;;;3.06;100.00
14295;BME280;7231;59.370;18.016;2024-03-22T03:18:12;100475.50;;;3.07;100.00
14295;BME280;7231;59.370;18.016;2024-03-22T03:20:39;100480.66;;;3.07;100.00
14295;BME280;7231;59.370;18.016;2024-03-22T03:23:05;100475.34;;;3.04;100.00
14295;BME280;7231;59.370;18.016;2024-03-22T03:25:32;100466.59;;;3.02;100.00
14295;BME280;7231;59.370;18.016;2024-03-22T03:27:58;100467.47;;;3.02;100.00
14295;BME280;7231;59.370;18.016;2024-03-22T03:30:26;100399.72;;;2.60;100.00
14295;BME280;7231;59.370;18.016;2024-03-22T03:32:54;100467.41;;;3.01;100.00
14295;BME280;7231;59.370;18.016;2024-03-22T03:35:21;100455.03;;;2.95;100.00
14295;BME280;7231;59.370;18.016;2024-03-22T03:37:47;100447.34;;;2.97;100.00
14295;BME280;7231;59.370;18.016;2024-03-22T03:40:16;100441.44;;;2.99;100.00
14295;BME280;7231;59.370;18.016;2024-03-22T03:42:42;100436.97;;;2.97;100.00
14295;BME280;7231;59.370;18.016;2024-03-22T03:45:09;100433.66;;;2.99;100.00
14295;BME280;7231;59.370;18.016;2024-03-22T03:47:35;100439.88;;;3.03;100.00
14295;BME280;7231;59.370;18.016;2024-03-22T03:50:04;100433.75;;;3.01;100.00
14295;BME280;7231;59.370;18.016;2024-03-22T03:52:30;100420.72;;;2.99;100.00
14295;BME280;7231;59.370;18.016;2024-03-22T03:54:57;100416.41;;;3.00;100.00
14295;BME280;7231;59.370;18.016;2024-03-22T03:57:23;100366.94;;;2.77;100.00
14295;BME280;7231;59.370;18.016;2024-03-22T03:59:51;100394.00;;;3.00;100.00
14295;BME280;7231;59.370;18.016;2024-03-22T04:02:17;100398.38;;;3.01;100.00
14295;BME280;7231;59.370;18.016;2024-03-22T04:04:44;100397.56;;;3.02;100.00
14295;BME280;7231;59.370;18.016;2024-03-22T04:07:12;100387.13;;;3.01;100.00
14295;BME280;7231;59.370;18.016;2024-03-22T04:09:39;100368.91;;;2.99;100.00
14295;BME280;7231;59.370;18.016;2024-03-22T04:12:05;100360.34;;;3.00;100.00
14295;BME280;7231;59.370;18.016;2024-03-22T04:14:33;100361.31;;;3.02;100.00
14295;BME280;7231;59.370;18.016;2024-03-22T04:16:59;100352.78;;;3.05;100.00
14295;BME280;7231;59.370;18.016;2024-03-22T04:19:26;100351.91;;;3.04;100.00
14295;BME280;7231;59.370;18.016;2024-03-22T04:21:52;100344.06;;;3.03;100.00
14295;BME280;7231;59.370;18.016;2024-03-22T04:24:21;100318.59;;;2.94;100.00
14295;BME280;7231;59.370;18.016;2024-03-22T04:26:47;100323.50;;;3.06;100.00
14295;BME280;7231;59.370;18.016;2024-03-22T04:29:14;100337.41;;;3.08;100.00
14295;BME280;7231;59.370;18.016;2024-03-22T04:31:40;100331.25;;;3.06;100.00
14295;BME280;7231;59.370;18.016;2024-03-22T04:34:07;100312.81;;;3.00;100.00
14295;BME280;7231;59.370;18.016;2024-03-22T04:36:34;100323.63;;;3.09;100.00
14295;BME280;7231;59.370;18.016;2024-03-22T04:39:01;100316.75;;;3.09;100.00
14295;BME280;7231;59.370;18.016;2024-03-22T04:41:30;100300.56;;;3.13;100.00
14295;BME280;7231;59.370;18.016;2024-03-22T04:43:57;100299.66;;;3.13;100.00
14295;BME280;7231;59.370;18.016;2024-03-22T04:46:25;100292.13;;;3.17;100.00
14295;BME280;7231;59.370;18.016;2024-03-22T04:48:51;100263.69;;;3.01;100.00
14295;BME280;7231;59.370;18.016;2024-03-22T04:51:18;100276.72;;;3.20;100.00
14295;BME280;7231;59.370;18.016;2024-03-22T04:53:44;100271.53;;;3.20;100.00
14295;BME280;7231;59.370;18.016;2024-03-22T04:56:11;100264.59;;;3.19;100.00
14295;BME280;7231;59.370;18.016;2024-03-22T04:58:40;100265.56;;;3.21;100.00
14295;BME280;7231;59.370;18.016;2024-03-22T05:01:06;100276.06;;;3.24;100.00
14295;BME280;7231;59.370;18.016;2024-03-22T05:03:33;100256.00;;;3.20;100.00
14295;BME280;7231;59.370;18.016;2024-03-22T05:05:59;100255.25;;;3.23;100.00
14295;BME280;7231;59.370;18.016;2024-03-22T05:08:29;100263.25;;;3.28;100.00
14295;BME280;7231;59.370;18.016;2024-03-22T05:10:55;100259.84;;;3.29;100.00
14295;BME280;7231;59.370;18.016;2024-03-22T05:13:22;100240.81;;;3.28;100.00
14295;BME280;7231;59.370;18.016;2024-03-22T05:15:49;100237.56;;;3.32;100.00
14295;BME280;7231;59.370;18.016;2024-03-22T05:18:16;100239.34;;;3.33;100.00
14295;BME280;7231;59.370;18.016;2024-03-22T05:20:43;100237.84;;;3.38;100.00
14295;BME280;7231;59.370;18.016;2024-03-22T05:23:10;100139.63;;;2.88;100.00
14295;BME280;7231;59.370;18.016;2024-03-22T05:25:36;100225.09;;;3.43;100.00
14295;BME280;7231;59.370;18.016;2024-03-22T05:28:03;100209.56;;;3.43;100.00
14295;BME280;7231;59.370;18.016;2024-03-22T05:30:29;100212.28;;;3.46;100.00
14295;BME280;7231;59.370;18.016;2024-03-22T05:32:59;100214.06;;;3.47;100.00
14295;BME280;7231;59.370;18.016;2024-03-22T05:35:25;100202.59;;;3.42;100.00
14295;BME280;7231;59.370;18.016;2024-03-22T05:37:52;100190.47;;;3.41;100.00
14295;BME280;7231;59.370;18.016;2024-03-22T05:40:18;100181.06;;;3.43;100.00
14295;BME280;7231;59.370;18.016;2024-03-22T05:42:45;100173.13;;;3.40;100.00
14295;BME280;7231;59.370;18.016;2024-03-22T05:45:12;100187.13;;;3.43;100.00
14295;BME280;7231;59.370;18.016;2024-03-22T05:47:38;100182.91;;;3.45;100.00
14295;BME280;7231;59.370;18.016;2024-03-22T05:50:08;100136.09;;;3.23;100.00
14295;BME280;7231;59.370;18.016;2024-03-22T05:52:34;100174.38;;;3.48;100.00
14295;BME280;7231;59.370;18.016;2024-03-22T05:55:02;100189.19;;;3.50;100.00
14295;BME280;7231;59.370;18.016;2024-03-22T05:57:28;100178.88;;;3.52;100.00
14295;BME280;7231;59.370;18.016;2024-03-22T05:59:55;100179.69;;;3.51;100.00
14295;BME280;7231;59.370;18.016;2024-03-22T06:02:21;100171.84;;;3.49;100.00
14295;BME280;7231;59.370;18.016;2024-03-22T06:04:49;100157.31;;;3.53;100.00
14295;BME280;7231;59.370;18.016;2024-03-22T06:07:16;100139.94;;;3.50;100.00
14295;BME280;7231;59.370;18.016;2024-03-22T06:09:43;100139.13;;;3.51;100.00
14295;BME280;7231;59.370;18.016;2024-03-22T06:12:11;100113.47;;;3.38;100.00
14295;BME280;7231;59.370;18.016;2024-03-22T06:14:39;100134.94;;;3.55;100.00
14295;BME280;7231;59.370;18.016;2024-03-22T06:17:06;100136.53;;;3.51;100.00
14295;BME280;7231;59.370;18.016;2024-03-22T06:19:33;100124.78;;;3.59;100.00
14295;BME280;7231;59.370;18.016;2024-03-22T06:21:59;100125.75;;;3.62;100.00
14295;BME280;7231;59.370;18.016;2024-03-22T06:24:27;100113.81;;;3.65;100.00
14295;BME280;7231;59.370;18.016;2024-03-22T06:26:53;100107.06;;;3.69;100.00
14295;BME280;7231;59.370;18.016;2024-03-22T06:29:21;100096.75;;;3.70;100.00
14295;BME280;7231;59.370;18.016;2024-03-22T06:31:47;100090.13;;;3.77;100.00
14295;BME280;7231;59.370;18.016;2024-03-22T06:34:16;99999.88;;;3.28;100.00
14295;BME280;7231;59.370;18.016;2024-03-22T06:36:42;100084.19;;;3.79;100.00
14295;BME280;7231;59.370;18.016;2024-03-22T06:39:09;100083.34;;;3.80;100.00
14295;BME280;7231;59.370;18.016;2024-03-22T06:41:37;100081.44;;;3.76;100.00
14295;BME280;7231;59.370;18.016;2024-03-22T06:44:04;100086.91;;;3.82;100.00
14295;BME280;7231;59.370;18.016;2024-03-22T06:46:30;100077.34;;;3.81;100.00
14295;BME280;7231;59.370;18.016;2024-03-22T06:48:58;100087.84;;;3.84;100.00
14295;BME280;7231;59.370;18.016;2024-03-22T06:51:24;100073.06;;;3.82;100.00
14295;BME280;7231;59.370;18.016;2024-03-22T06:53:51;100069.75;;;3.86;100.00
14295;BME280;7231;59.370;18.016;2024-03-22T06:56:17;100052.56;;;3.88;100.00
14295;BME280;7231;59.370;18.016;2024-03-22T06:58:46;100052.69;;;3.91;100.00
14295;BME280;7231;59.370;18.016;2024-03-22T07:01:12;100049.91;;;3.86;100.00
14295;BME280;7231;59.370;18.016;2024-03-22T07:03:39;100028.41;;;3.89;100.00
14295;BME280;7231;59.370;18.016;2024-03-22T07:06:05;100031.13;;;3.92;100.00
14295;BME280;7231;59.370;18.016;2024-03-22T07:08:35;100021.25;;;3.83;100.00
14295;BME280;7231;59.370;18.016;2024-03-22T07:11:05;100038.91;;;3.92;100.00
14295;BME280;7231;59.370;18.016;2024-03-22T07:13:32;100044.84;;;3.89;100.00
14295;BME280;7231;59.370;18.016;2024-03-22T07:16:00;100031.06;;;3.90;100.00
14295;BME280;7231;59.370;18.016;2024-03-22T07:18:27;100025.00;;;3.90;100.00
14295;BME280;7231;59.370;18.016;2024-03-22T07:20:53;100011.78;;;3.84;100.00
14295;BME280;7231;59.370;18.016;2024-03-22T07:23:20;100024.88;;;3.87;100.00
14295;BME280;7231;59.370;18.016;2024-03-22T07:25:46;100036.13;;;3.87;100.00
14295;BME280;7231;59.370;18.016;2024-03-22T07:28:14;100013.47;;;3.83;100.00
14295;BME280;7231;59.370;18.016;2024-03-22T07:30:41;100014.25;;;3.81;100.00
14295;BME280;7231;59.370;18.016;2024-03-22T07:33:11;99978.25;;;3.68;100.00
14295;BME280;7231;59.370;18.016;2024-03-22T07:35:39;100005.50;;;3.79;100.00
14295;BME280;7231;59.370;18.016;2024-03-22T07:38:06;99978.25;;;3.68;100.00
14295;BME280;7231;59.370;18.016;2024-03-22T07:40:32;99980.59;;;3.62;100.00
14295;BME280;7231;59.370;18.016;2024-03-22T07:43:00;100002.03;;;3.78;100.00
14295;BME280;7231;59.370;18.016;2024-03-22T07:45:31;99996.78;;;3.77;100.00
14295;BME280;7231;59.370;18.016;2024-03-22T07:47:58;100001.28;;;3.81;100.00
14295;BME280;7231;59.370;18.016;2024-03-22T07:50:27;99991.03;;;3.84;100.00
14295;BME280;7231;59.370;18.016;2024-03-22T07:52:54;99969.97;;;3.76;100.00
14295;BME280;7231;59.370;18.016;2024-03-22T07:55:20;99963.38;;;3.84;100.00
14295;BME280;7231;59.370;18.016;2024-03-22T07:57:47;99940.63;;;3.77;100.00
14295;BME280;7231;59.370;18.016;2024-03-22T08:00:14;99951.38;;;3.86;100.00
14295;BME280;7231;59.370;18.016;2024-03-22T08:02:41;99969.13;;;3.98;100.00
14295;BME280;7231;59.370;18.016;2024-03-22T08:05:07;99959.69;;;4.00;100.00
14295;BME280;7231;59.370;18.016;2024-03-22T08:07:36;99952.81;;;4.01;100.00
14295;BME280;7231;59.370;18.016;2024-03-22T08:10:03;99946.03;;;4.04;100.00
14295;BME280;7231;59.370;18.016;2024-03-22T08:12:30;99951.41;;;4.09;100.00
14295;BME280;7231;59.370;18.016;2024-03-22T08:14:56;99950.75;;;4.14;100.00
14295;BME280;7231;59.370;18.016;2024-03-22T08:17:23;99952.59;;;4.17;100.00
14295;BME280;7231;59.370;18.016;2024-03-22T08:19:49;99935.19;;;4.14;100.00
14295;BME280;7231;59.370;18.016;2024-03-22T08:22:16;99933.72;;;4.21;100.00
14295;BME280;7231;59.370;18.016;2024-03-22T08:24:44;99925.88;;;4.19;100.00
14295;BME280;7231;59.370;18.016;2024-03-22T08:27:11;99902.19;;;4.10;100.00
14295;BME280;7231;59.370;18.016;2024-03-22T08:29:39;99925.28;;;4.27;100.00
14295;BME280;7231;59.370;18.016;2024-03-22T08:32:07;99907.00;;;4.23;100.00
14295;BME280;7231;59.370;18.016;2024-03-22T08:34:33;99908.91;;;4.28;100.00
14295;BME280;7231;59.370;18.016;2024-03-22T08:37:00;99911.50;;;4.28;100.00
14295;BME280;7231;59.370;18.016;2024-03-22T08:39:26;99907.00;;;4.23;100.00
14295;BME280;7231;59.370;18.016;2024-03-22T08:41:55;99906.19;;;4.24;100.00
14295;BME280;7231;59.370;18.016;2024-03-22T08:44:21;99893.28;;;4.26;100.00
14295;BME280;7231;59.370;18.016;2024-03-22T08:46:48;99856.44;;;4.12;100.00
14295;BME280;7231;59.370;18.016;2024-03-22T08:49:15;99889.13;;;4.31;100.00
14295;BME280;7231;59.370;18.016;2024-03-22T08:51:45;99820.53;;;4.01;100.00
14295;BME280;7231;59.370;18.016;2024-03-22T08:54:11;99860.41;;;4.27;100.00
14295;BME280;7231;59.370;18.016;2024-03-22T08:56:38;99890.84;;;4.31;100.00
14295;BME280;7231;59.370;18.016;2024-03-22T08:59:06;99838.50;;;4.18;100.00
14295;BME280;7231;59.370;18.016;2024-03-22T09:01:33;99853.56;;;4.29;100.00
14295;BME280;7231;59.370;18.016;2024-03-22T09:03:59;99846.03;;;4.35;100.00
14295;BME280;7231;59.370;18.016;2024-03-22T09:06:26;99852.03;;;4.34;100.00
14295;BME280;7231;59.370;18.016;2024-03-22T09:08:52;99747.91;;;3.77;100.00
14295;BME280;7231;59.370;18.016;2024-03-22T09:11:23;99844.31;;;4.35;100.00
14295;BME280;7231;59.370;18.016;2024-03-22T09:13:51;99835.03;;;4.42;100.00
14295;BME280;7231;59.370;18.016;2024-03-22T09:16:20;99829.00;;;4.43;100.00
14295;BME280;7231;59.370;18.016;2024-03-22T09:18:46;99817.59;;;4.38;100.00
14295;BME280;7231;59.370;18.016;2024-03-22T09:21:13;99827.63;;;4.52;100.00
14295;BME280;7231;59.370;18.016;2024-03-22T09:23:41;99813.94;;;4.56;100.00
14295;BME280;7231;59.370;18.016;2024-03-22T09:26:07;99830.50;;;4.60;100.00
14295;BME280;7231;59.370;18.016;2024-03-22T09:28:34;99816.75;;;4.63;100.00
14295;BME280;7231;59.370;18.016;2024-03-22T09:31:03;99812.34;;;4.60;100.00
14295;BME280;7231;59.370;18.016;2024-03-22T09:33:32;99822.88;;;4.65;100.00
14295;BME280;7231;59.370;18.016;2024-03-22T09:35:59;99819.44;;;4.66;100.00
14295;BME280;7231;59.370;18.016;2024-03-22T09:38:26;99811.63;;;4.64;100.00
14295;BME280;7231;59.370;18.016;2024-03-22T09:40:52;99810.78;;;4.65;100.00
14295;BME280;7231;59.370;18.016;2024-03-22T09:43:21;99810.88;;;4.68;100.00
14295;BME280;7231;59.370;18.016;2024-03-22T09:45:47;99803.09;;;4.68;100.00
14295;BME280;7231;59.370;18.016;2024-03-22T09:48:15;99808.44;;;4.73;100.00
14295;BME280;7231;59.370;18.016;2024-03-22T09:50:46;99803.22;;;4.71;100.00
14295;BME280;7231;59.370;18.016;2024-03-22T09:53:13;99804.97;;;4.72;100.00
14295;BME280;7231;59.370;18.016;2024-03-22T09:55:44;99800.66;;;4.73;100.00
14295;BME280;7231;59.370;18.016;2024-03-22T09:58:12;99794.63;;;4.74;100.00
14295;BME280;7231;59.370;18.016;2024-03-22T10:00:38;99790.38;;;4.76;100.00
14295;BME280;7231;59.370;18.016;2024-03-22T10:03:06;99747.31;;;4.57;100.00
14295;BME280;7231;59.370;18.016;2024-03-22T10:05:33;99784.50;;;4.81;100.00
14295;BME280;7231;59.370;18.016;2024-03-22T10:08:02;99770.44;;;4.75;100.00
14295;BME280;7231;59.370;18.016;2024-03-22T10:10:29;99774.22;;;4.84;100.00
14295;BME280;7231;59.370;18.016;2024-03-22T10:12:56;99762.13;;;4.85;100.00
14295;BME280;7231;59.370;18.016;2024-03-22T10:15:23;99752.78;;;4.90;100.00
14295;BME280;7231;59.370;18.016;2024-03-22T10:17:52;99746.53;;;4.85;100.00
14295;BME280;7231;59.370;18.016;2024-03-22T10:20:20;99747.78;;;4.96;100.00
14295;BME280;7231;59.370;18.016;2024-03-22T10:22:48;99745.28;;;4.99;100.00
14295;BME280;7231;59.370;18.016;2024-03-22T10:25:16;99707.44;;;4.80;100.00
14295;BME280;7231;59.370;18.016;2024-03-22T10:27:43;99726.13;;;4.96;100.00
14295;BME280;7231;59.370;18.016;2024-03-22T10:30:10;99734.22;;;5.05;100.00
14295;BME280;7231;59.370;18.016;2024-03-22T10:32:39;99734.34;;;5.09;100.00
14295;BME280;7231;59.370;18.016;2024-03-22T10:35:06;99720.56;;;5.12;100.00
14295;BME280;7231;59.370;18.016;2024-03-22T10:37:33;99719.84;;;5.16;100.00
14295;BME280;7231;59.370;18.016;2024-03-22T10:40:01;99709.31;;;5.11;100.00
14295;BME280;7231;59.370;18.016;2024-03-22T10:42:35;99724.31;;;5.20;100.00
14295;BME280;7231;59.370;18.016;2024-03-22T10:45:02;99676.88;;;4.99;100.00
14295;BME280;7231;59.370;18.016;2024-03-22T10:47:30;99689.41;;;5.12;100.00
14295;BME280;7231;59.370;18.016;2024-03-22T10:50:04;99707.09;;;5.25;100.00
14295;BME280;7231;59.370;18.016;2024-03-22T10:52:36;99703.72;;;5.28;100.00
14295;BME280;7231;59.370;18.016;2024-03-22T10:55:04;99695.03;;;5.27;100.00
14295;BME280;7231;59.370;18.016;2024-03-22T10:57:35;99692.53;;;5.30;100.00
14295;BME280;7231;59.370;18.016;2024-03-22T11:00:04;99693.41;;;5.31;100.00
14295;BME280;7231;59.370;18.016;2024-03-22T11:02:35;99696.94;;;5.33;100.00
14295;BME280;7231;59.370;18.016;2024-03-22T11:05:02;99688.34;;;5.35;100.00
14295;BME280;7231;59.370;18.016;2024-03-22T11:07:30;99688.50;;;5.40;100.00
14295;BME280;7231;59.370;18.016;2024-03-22T11:09:56;99673.50;;;5.31;100.00
14295;BME280;7231;59.370;18.016;2024-03-22T11:12:25;99679.91;;;5.42;100.00
14295;BME280;7231;59.370;18.016;2024-03-22T11:14:53;99677.31;;;5.42;100.00
14295;BME280;7231;59.370;18.016;2024-03-22T11:17:20;99666.13;;;5.45;100.00
14295;BME280;7231;59.370;18.016;2024-03-22T11:19:50;99663.66;;;5.49;100.00
14295;BME280;7231;59.370;18.016;2024-03-22T11:22:17;99628.50;;;5.32;100.00
14295;BME280;7231;59.370;18.016;2024-03-22T11:24:44;99626.94;;;5.39;100.00
14295;BME280;7231;59.370;18.016;2024-03-22T11:27:11;99651.81;;;5.59;100.00
14295;BME280;7231;59.370;18.016;2024-03-22T11:29:37;99632.59;;;5.54;100.00
14295;BME280;7231;59.370;18.016;2024-03-22T11:32:08;99646.47;;;5.54;100.00
14295;BME280;7231;59.370;18.016;2024-03-22T11:34:35;99635.97;;;5.51;100.00
14295;BME280;7231;59.370;18.016;2024-03-22T11:37:02;99630.97;;;5.58;100.00
14295;BME280;7231;59.370;18.016;2024-03-22T11:39:28;99628.56;;;5.65;100.00
14295;BME280;7231;59.370;18.016;2024-03-22T11:41:55;99622.59;;;5.68;100.00
14295;BME280;7231;59.370;18.016;2024-03-22T11:44:23;99625.25;;;5.71;100.00
14295;BME280;7231;59.370;18.016;2024-03-22T11:46:52;99606.09;;;5.67;100.00
14295;BME280;7231;59.370;18.016;2024-03-22T11:49:19;99609.63;;;5.69;100.00
14295;BME280;7231;59.370;18.016;2024-03-22T11:51:47;99615.78;;;5.73;100.00
14295;BME280;7231;59.370;18.016;2024-03-22T11:54:13;99609.72;;;5.72;100.00
14295;BME280;7231;59.370;18.016;2024-03-22T11:56:40;99594.84;;;5.68;100.00
14295;BME280;7231;59.370;18.016;2024-03-22T11:59:06;99602.78;;;5.73;100.00
14295;BME280;7231;59.370;18.016;2024-03-22T12:01:33;99603.59;;;5.70;100.00
14295;BME280;7231;59.370;18.016;2024-03-22T12:04:00;99594.91;;;5.70;100.00
14295;BME280;7231;59.370;18.016;2024-03-22T12:06:28;99565.91;;;5.56;100.00
14295;BME280;7231;59.370;18.016;2024-03-22T12:08:54;99588.94;;;5.74;100.00
14295;BME280;7231;59.370;18.016;2024-03-22T12:11:21;99582.81;;;5.72;100.00
14295;BME280;7231;59.370;18.016;2024-03-22T12:13:47;99581.22;;;5.77;100.00
14295;BME280;7231;59.370;18.016;2024-03-22T12:16:15;99566.25;;;5.68;100.00
14295;BME280;7231;59.370;18.016;2024-03-22T12:18:41;99555.94;;;5.71;100.00
14295;BME280;7231;59.370;18.016;2024-03-22T12:21:08;99560.41;;;5.77;100.00
14295;BME280;7231;59.370;18.016;2024-03-22T12:23:35;99565.91;;;5.87;100.00
14295;BME280;7231;59.370;18.016;2024-03-22T12:26:03;99568.63;;;5.91;100.00
14295;BME280;7231;59.370;18.016;2024-03-22T12:28:29;99572.94;;;5.90;100.00
14295;BME280;7231;59.370;18.016;2024-03-22T12:30:56;99542.41;;;5.84;100.00
14295;BME280;7231;59.370;18.016;2024-03-22T12:33:22;99558.41;;;5.98;100.00
14295;BME280;7231;59.370;18.016;2024-03-22T12:35:49;99555.97;;;6.04;100.00
14295;BME280;7231;59.370;18.016;2024-03-22T12:38:15;99546.47;;;6.06;100.00
14295;BME280;7231;59.370;18.016;2024-03-22T12:40:45;99525.41;;;5.96;100.00
14295;BME280;7231;59.370;18.016;2024-03-22T12:43:11;99538.72;;;6.08;100.00
14295;BME280;7231;59.370;18.016;2024-03-22T12:45:38;99519.34;;;5.97;100.00
14295;BME280;7231;59.370;18.016;2024-03-22T12:48:05;99531.81;;;6.10;100.00
14295;BME280;7231;59.370;18.016;2024-03-22T12:50:32;99531.03;;;6.12;100.00
14295;BME280;7231;59.370;18.016;2024-03-22T12:52:59;99506.25;;;5.94;100.00
14295;BME280;7231;59.370;18.016;2024-03-22T12:55:26;99515.03;;;5.97;100.00